PWSweather.com
Personal Weather Stations
Station Observations
IHTIMAN1
Neighbourhood 1, IhtimanBG 2050

Neighbourhood 1IhtimanBG 2050

Lat: 42.436852, Lon: 23.817921

Elevation: 2066

Station Type: Oregon Scientific WMR968

http://ihtiman-meteo.com

High Low Average
Temperature 65.8°F18.8°C 48.7°F9.3°C 54.8°F12.7°C
Dew Point 58.9°F14.9°C 48.2°F9.0°C 51.5°F10.8°C
Winds 8.1 mph 13.0 kmh Calm Calm 3.0 mph W4.8 kmh W
Wind Gusts 11.5 mph18.5 kmh -- 4.0 mph6.4 kmh
Humidity 98% 66% 89%
Pressure 29.91 in1012.9 mb 29.80 in1009.1 mb -
Precipitation 0.05 in1.3 mm - -
Hour Temp Dew Point Humidity Winds Wind Gusts Pressure Precip Precip Rate Daily Precip Total
12:00 AM 54.5°F12.5°C 53.9°F12.2°C 98% 5.8 mph SE9.3 kmh SE 9.2 mph14.8 kmh 29.82 in1009.8 mb - 0.00 in0.0 mm 0.00 in0.0 mm
12:10 AM 54.5°F12.5°C 53.9°F12.2°C 98% 4.6 mph SSE7.4 kmh SSE 5.8 mph9.3 kmh 29.82 in1009.8 mb - 0.00 in0.0 mm 0.00 in0.0 mm
12:20 AM 54.5°F12.5°C 53.9°F12.2°C 98% 4.6 mph SE7.4 kmh SE 8.1 mph13.0 kmh 29.82 in1009.8 mb - 0.00 in0.0 mm 0.00 in0.0 mm
12:40 AM 54.5°F12.5°C 53.9°F12.2°C 98% 4.6 mph ESE7.4 kmh ESE 5.8 mph9.3 kmh 29.82 in1009.8 mb - 0.00 in0.0 mm 0.00 in0.0 mm
12:50 AM 54.5°F12.5°C 53.9°F12.2°C 98% 1.2 mph SE1.9 kmh SE 4.6 mph7.4 kmh 29.82 in1009.8 mb - 0.00 in0.0 mm 0.00 in0.0 mm
01:00 AM 54.5°F12.5°C 53.9°F12.2°C 98% 4.6 mph ESE7.4 kmh ESE 5.8 mph9.3 kmh 29.82 in1009.8 mb - 0.00 in0.0 mm 0.00 in0.0 mm
01:10 AM 54.5°F12.5°C 53.9°F12.2°C 98% 2.3 mph SE3.7 kmh SE 3.5 mph5.6 kmh 29.82 in1009.8 mb - 0.00 in0.0 mm 0.00 in0.0 mm
01:20 AM 54.5°F12.5°C 53.9°F12.2°C 98% 3.5 mph E5.6 kmh E 5.8 mph9.3 kmh 29.82 in1009.8 mb - 0.00 in0.0 mm 0.00 in0.0 mm
01:30 AM 54.5°F12.5°C 53.9°F12.2°C 98% 1.2 mph SE1.9 kmh SE 3.5 mph5.6 kmh 29.82 in1009.8 mb - 0.00 in0.0 mm 0.00 in0.0 mm
01:40 AM 54.5°F12.5°C 53.9°F12.2°C 98% 2.3 mph SE3.7 kmh SE 3.5 mph5.6 kmh 29.82 in1009.8 mb - 0.00 in0.0 mm 0.00 in0.0 mm
01:50 AM 54.5°F12.5°C 53.9°F12.2°C 98% 6.9 mph NW11.1 kmh NW 8.1 mph13.0 kmh 29.82 in1009.8 mb - 0.00 in0.0 mm 0.00 in0.0 mm
02:00 AM 54.5°F12.5°C 53.9°F12.2°C 98% 8.1 mph NNW13.0 kmh NNW 8.1 mph13.0 kmh 29.82 in1009.8 mb - 0.00 in0.0 mm 0.00 in0.0 mm
02:10 AM 54.5°F12.5°C 53.9°F12.2°C 98% 6.9 mph N11.1 kmh N 9.2 mph14.8 kmh 29.82 in1009.8 mb - 0.00 in0.0 mm 0.00 in0.0 mm
02:20 AM 50.7°F10.4°C 49.3°F9.6°C 95% 5.8 mph N9.3 kmh N 8.1 mph13.0 kmh 29.82 in1009.8 mb - 0.00 in0.0 mm 0.00 in0.0 mm
02:30 AM 50.9°F10.5°C 49.2°F9.6°C 94% 4.6 mph NW7.4 kmh NW 5.8 mph9.3 kmh 29.82 in1009.8 mb - 0.00 in0.0 mm 0.00 in0.0 mm
02:40 AM 50.9°F10.5°C 49.2°F9.6°C 94% 4.6 mph W7.4 kmh W 5.8 mph9.3 kmh 29.82 in1009.8 mb - 0.00 in0.0 mm 0.00 in0.0 mm
02:50 AM 50.4°F10.2°C 48.7°F9.3°C 94% 3.5 mph WSW5.6 kmh WSW 5.8 mph9.3 kmh 29.82 in1009.8 mb - 0.00 in0.0 mm 0.00 in0.0 mm
03:00 AM 50.0°F10.0°C 48.3°F9.1°C 94% 4.6 mph WNW7.4 kmh WNW 5.8 mph9.3 kmh 29.82 in1009.8 mb - 0.00 in0.0 mm 0.00 in0.0 mm
03:10 AM 49.8°F9.9°C 48.4°F9.1°C 95% 3.5 mph WNW5.6 kmh WNW 5.8 mph9.3 kmh 29.82 in1009.8 mb - 0.00 in0.0 mm 0.00 in0.0 mm
03:20 AM 49.8°F9.9°C 48.7°F9.3°C 96% 2.3 mph NW3.7 kmh NW 4.6 mph7.4 kmh 29.82 in1009.8 mb - 0.00 in0.0 mm 0.00 in0.0 mm
03:30 AM 49.6°F9.8°C 48.5°F9.2°C 96% 3.5 mph WSW5.6 kmh WSW 3.5 mph5.6 kmh 29.82 in1009.8 mb - 0.00 in0.0 mm 0.00 in0.0 mm
03:40 AM 49.6°F9.8°C 48.8°F9.3°C 97% Calm Calm 3.5 mph5.6 kmh 29.82 in1009.8 mb - 0.00 in0.0 mm 0.00 in0.0 mm
03:50 AM 49.6°F9.8°C 48.8°F9.3°C 97% Calm Calm -- 29.80 in1009.1 mb - 0.00 in0.0 mm 0.00 in0.0 mm
04:00 AM 49.6°F9.8°C 48.8°F9.3°C 97% Calm Calm -- 29.82 in1009.8 mb - 0.00 in0.0 mm 0.00 in0.0 mm
04:10 AM 49.6°F9.8°C 49.1°F9.5°C 98% Calm Calm -- 29.82 in1009.8 mb - 0.00 in0.0 mm 0.00 in0.0 mm
04:20 AM 49.6°F9.8°C 49.1°F9.5°C 98% Calm Calm -- 29.82 in1009.8 mb - 0.00 in0.0 mm 0.00 in0.0 mm
04:30 AM 49.6°F9.8°C 49.1°F9.5°C 98% Calm Calm -- 29.80 in1009.1 mb - 0.00 in0.0 mm 0.00 in0.0 mm
04:40 AM 49.6°F9.8°C 49.1°F9.5°C 98% Calm Calm -- 29.80 in1009.1 mb - 0.00 in0.0 mm 0.00 in0.0 mm
04:50 AM 49.6°F9.8°C 49.1°F9.5°C 98% Calm Calm -- 29.80 in1009.1 mb - 0.00 in0.0 mm 0.00 in0.0 mm
05:00 AM 49.5°F9.7°C 49.0°F9.4°C 98% Calm Calm -- 29.82 in1009.8 mb - 0.00 in0.0 mm 0.00 in0.0 mm
05:10 AM 49.5°F9.7°C 48.9°F9.4°C 98% Calm Calm -- 29.82 in1009.8 mb - 0.00 in0.0 mm 0.00 in0.0 mm
05:20 AM 49.5°F9.7°C 48.9°F9.4°C 98% Calm Calm -- 29.80 in1009.1 mb - 0.00 in0.0 mm 0.00 in0.0 mm
05:30 AM 49.6°F9.8°C 49.1°F9.5°C 98% Calm Calm -- 29.80 in1009.1 mb - 0.00 in0.0 mm 0.00 in0.0 mm
05:40 AM 49.6°F9.8°C 49.1°F9.5°C 98% Calm Calm -- 29.80 in1009.1 mb - 0.00 in0.0 mm 0.00 in0.0 mm
05:50 AM 49.6°F9.8°C 49.1°F9.5°C 98% Calm Calm -- 29.80 in1009.1 mb - 0.00 in0.0 mm 0.00 in0.0 mm
06:00 AM 49.8°F9.9°C 49.3°F9.6°C 98% Calm Calm -- 29.80 in1009.1 mb - 0.00 in0.0 mm 0.00 in0.0 mm
06:10 AM 50.0°F10.0°C 49.5°F9.7°C 98% Calm Calm -- 29.80 in1009.1 mb - 0.00 in0.0 mm 0.00 in0.0 mm
06:20 AM 50.0°F10.0°C 49.5°F9.7°C 98% Calm Calm -- 29.80 in1009.1 mb - 0.00 in0.0 mm 0.00 in0.0 mm
06:30 AM 50.2°F10.1°C 49.6°F9.8°C 98% Calm Calm -- 29.82 in1009.8 mb - 0.00 in0.0 mm 0.00 in0.0 mm
06:40 AM 50.2°F10.1°C 49.6°F9.8°C 98% Calm Calm -- 29.82 in1009.8 mb - 0.00 in0.0 mm 0.00 in0.0 mm
06:50 AM 50.7°F10.4°C 50.2°F10.1°C 98% Calm Calm -- 29.82 in1009.8 mb - 0.00 in0.0 mm 0.00 in0.0 mm
07:00 AM 50.9°F10.5°C 50.4°F10.2°C 98% Calm Calm -- 29.82 in1009.8 mb - 0.00 in0.0 mm 0.00 in0.0 mm
07:10 AM 51.3°F10.7°C 50.7°F10.4°C 98% Calm Calm -- 29.82 in1009.8 mb - 0.00 in0.0 mm 0.00 in0.0 mm
07:20 AM 51.6°F10.9°C 51.1°F10.6°C 98% 2.3 mph WSW3.7 kmh WSW 3.5 mph5.6 kmh 29.82 in1009.8 mb - 0.00 in0.0 mm 0.00 in0.0 mm
07:30 AM 51.6°F10.9°C 51.1°F10.6°C 98% 3.5 mph WSW5.6 kmh WSW 4.6 mph7.4 kmh 29.82 in1009.8 mb - 0.00 in0.0 mm 0.00 in0.0 mm
07:50 AM 51.6°F10.9°C 51.1°F10.6°C 98% 1.2 mph NW1.9 kmh NW 3.5 mph5.6 kmh 29.82 in1009.8 mb - 0.00 in0.0 mm 0.00 in0.0 mm
08:00 AM 51.6°F10.9°C 51.1°F10.6°C 98% 3.5 mph NW5.6 kmh NW 5.8 mph9.3 kmh 29.82 in1009.8 mb - 0.00 in0.0 mm 0.00 in0.0 mm
08:10 AM 51.6°F10.9°C 51.1°F10.6°C 98% 1.2 mph N1.9 kmh N 3.5 mph5.6 kmh 29.82 in1009.8 mb - 0.00 in0.0 mm 0.00 in0.0 mm
08:20 AM 51.6°F10.9°C 51.1°F10.6°C 98% 2.3 mph N3.7 kmh N 3.5 mph5.6 kmh 29.82 in1009.8 mb - 0.00 in0.0 mm 0.00 in0.0 mm
08:30 AM 51.6°F10.9°C 51.1°F10.6°C 98% 2.3 mph N3.7 kmh N 5.8 mph9.3 kmh 29.82 in1009.8 mb - 0.00 in0.0 mm 0.00 in0.0 mm
08:40 AM 51.6°F10.9°C 51.1°F10.6°C 98% 3.5 mph N5.6 kmh N 5.8 mph9.3 kmh 29.82 in1009.8 mb - 0.00 in0.0 mm 0.00 in0.0 mm
08:50 AM 51.6°F10.9°C 51.1°F10.6°C 98% 3.5 mph NNW5.6 kmh NNW 5.8 mph9.3 kmh 29.82 in1009.8 mb - 0.00 in0.0 mm 0.00 in0.0 mm
09:00 AM 51.6°F10.9°C 51.1°F10.6°C 98% 4.6 mph NW7.4 kmh NW 5.8 mph9.3 kmh 29.82 in1009.8 mb - 0.00 in0.0 mm 0.00 in0.0 mm
09:10 AM 51.6°F10.9°C 51.1°F10.6°C 98% 4.6 mph NNW7.4 kmh NNW 4.6 mph7.4 kmh 29.82 in1009.8 mb - 0.00 in0.0 mm 0.00 in0.0 mm
09:20 AM 55.0°F12.8°C 54.5°F12.5°C 98% 4.6 mph N7.4 kmh N 5.8 mph9.3 kmh 29.82 in1009.8 mb - 0.00 in0.0 mm 0.00 in0.0 mm
09:30 AM 57.0°F13.9°C 51.9°F11.1°C 83% 4.6 mph N7.4 kmh N 5.8 mph9.3 kmh 29.82 in1009.8 mb - 0.00 in0.0 mm 0.00 in0.0 mm
09:40 AM 55.9°F13.3°C 50.2°F10.1°C 81% 3.5 mph NNW5.6 kmh NNW 5.8 mph9.3 kmh 29.82 in1009.8 mb - 0.00 in0.0 mm 0.00 in0.0 mm
09:50 AM 57.0°F13.9°C 51.3°F10.7°C 81% 4.6 mph N7.4 kmh N 5.8 mph9.3 kmh 29.82 in1009.8 mb - 0.00 in0.0 mm 0.00 in0.0 mm
10:00 AM 58.7°F14.8°C 51.5°F10.8°C 77% 4.6 mph NNW7.4 kmh NNW 5.8 mph9.3 kmh 29.82 in1009.8 mb - 0.00 in0.0 mm 0.00 in0.0 mm
10:10 AM 59.4°F15.2°C 51.1°F10.6°C 74% 5.8 mph WNW9.3 kmh WNW 8.1 mph13.0 kmh 29.82 in1009.8 mb - 0.00 in0.0 mm 0.00 in0.0 mm
10:20 AM 57.7°F14.3°C 49.9°F9.9°C 75% 6.9 mph WNW11.1 kmh WNW 9.2 mph14.8 kmh 29.82 in1009.8 mb - 0.00 in0.0 mm 0.00 in0.0 mm
10:30 AM 58.5°F14.7°C 50.6°F10.3°C 75% 4.6 mph N7.4 kmh N 6.9 mph11.1 kmh 29.82 in1009.8 mb - 0.00 in0.0 mm 0.00 in0.0 mm
10:40 AM 57.9°F14.4°C 49.7°F9.8°C 74% 4.6 mph N7.4 kmh N 9.2 mph14.8 kmh 29.82 in1009.8 mb - 0.00 in0.0 mm 0.00 in0.0 mm
10:50 AM 58.4°F14.7°C 50.1°F10.1°C 74% 4.6 mph N7.4 kmh N 9.2 mph14.8 kmh 29.82 in1009.8 mb - 0.00 in0.0 mm 0.00 in0.0 mm
11:00 AM 59.1°F15.1°C 50.4°F10.2°C 73% 5.8 mph NW9.3 kmh NW 8.1 mph13.0 kmh 29.82 in1009.8 mb - 0.00 in0.0 mm 0.00 in0.0 mm
11:10 AM 58.4°F14.7°C 49.8°F9.9°C 73% 3.5 mph NW5.6 kmh NW 5.8 mph9.3 kmh 29.82 in1009.8 mb - 0.00 in0.0 mm 0.00 in0.0 mm
11:20 AM 58.5°F14.7°C 49.8°F9.9°C 73% 5.8 mph NNW9.3 kmh NNW 9.2 mph14.8 kmh 29.82 in1009.8 mb - 0.00 in0.0 mm 0.00 in0.0 mm
11:30 AM 58.4°F14.7°C 49.7°F9.8°C 73% 4.6 mph NW7.4 kmh NW 8.1 mph13.0 kmh 29.82 in1009.8 mb - 0.00 in0.0 mm 0.00 in0.0 mm
11:40 AM 58.9°F14.9°C 49.9°F9.9°C 72% 5.8 mph NW9.3 kmh NW 5.8 mph9.3 kmh 29.82 in1009.8 mb - 0.00 in0.0 mm 0.00 in0.0 mm
11:50 AM 58.5°F14.7°C 49.5°F9.7°C 72% 6.9 mph NNW11.1 kmh NNW 9.2 mph14.8 kmh 29.82 in1009.8 mb - 0.00 in0.0 mm 0.00 in0.0 mm
12:00 PM 58.8°F14.9°C 50.2°F10.1°C 73% 5.8 mph NNW9.3 kmh NNW 9.2 mph14.8 kmh 29.82 in1009.8 mb - 0.00 in0.0 mm 0.00 in0.0 mm
12:10 PM 60.8°F16.0°C 51.3°F10.7°C 71% 6.9 mph NNW11.1 kmh NNW 10.4 mph16.7 kmh 29.82 in1009.8 mb - 0.00 in0.0 mm 0.00 in0.0 mm
12:20 PM 60.6°F15.9°C 50.7°F10.4°C 70% 5.8 mph NNW9.3 kmh NNW 8.1 mph13.0 kmh 29.82 in1009.8 mb - 0.00 in0.0 mm 0.00 in0.0 mm
12:30 PM 59.3°F15.2°C 49.5°F9.7°C 70% 6.9 mph N11.1 kmh N 8.1 mph13.0 kmh 29.82 in1009.8 mb - 0.00 in0.0 mm 0.00 in0.0 mm
12:40 PM 60.1°F15.6°C 50.3°F10.2°C 70% 4.6 mph N7.4 kmh N 6.9 mph11.1 kmh 29.82 in1009.8 mb - 0.00 in0.0 mm 0.00 in0.0 mm
12:50 PM 59.1°F15.1°C 49.7°F9.8°C 71% 5.8 mph NW9.3 kmh NW 5.8 mph9.3 kmh 29.82 in1009.8 mb - 0.00 in0.0 mm 0.00 in0.0 mm
01:00 PM 58.4°F14.7°C 51.6°F10.9°C 78% 4.6 mph NW7.4 kmh NW 4.6 mph7.4 kmh 29.82 in1009.8 mb - 0.00 in0.0 mm 0.00 in0.0 mm
01:10 PM 60.2°F15.7°C 55.0°F12.8°C 83% 3.5 mph N5.6 kmh N 5.8 mph9.3 kmh 29.82 in1009.8 mb - 0.00 in0.0 mm 0.00 in0.0 mm
01:20 PM 61.5°F16.4°C 55.3°F12.9°C 80% 3.5 mph NNE5.6 kmh NNE 3.5 mph5.6 kmh 29.82 in1009.8 mb - 0.00 in0.0 mm 0.00 in0.0 mm
01:30 PM 63.9°F17.7°C 54.3°F12.4°C 71% 4.6 mph N7.4 kmh N 5.8 mph9.3 kmh 29.80 in1009.1 mb - 0.00 in0.0 mm 0.00 in0.0 mm
01:40 PM 65.8°F18.8°C 54.2°F12.3°C 66% 2.3 mph N3.7 kmh N 3.5 mph5.6 kmh 29.80 in1009.1 mb - 0.00 in0.0 mm 0.00 in0.0 mm
01:50 PM 64.1°F17.8°C 52.5°F11.4°C 66% 1.2 mph SW1.9 kmh SW 5.8 mph9.3 kmh 29.80 in1009.1 mb - 0.00 in0.0 mm 0.00 in0.0 mm
02:00 PM 63.0°F17.2°C 52.2°F11.2°C 68% 4.6 mph WNW7.4 kmh WNW 5.8 mph9.3 kmh 29.80 in1009.1 mb - 0.00 in0.0 mm 0.00 in0.0 mm
02:10 PM 64.1°F17.8°C 52.9°F11.6°C 67% 3.5 mph NW5.6 kmh NW 4.6 mph7.4 kmh 29.80 in1009.1 mb - 0.00 in0.0 mm 0.00 in0.0 mm
02:20 PM 61.1°F16.2°C 51.7°F10.9°C 71% 4.6 mph WNW7.4 kmh WNW 5.8 mph9.3 kmh 29.80 in1009.1 mb - 0.00 in0.0 mm 0.00 in0.0 mm
02:30 PM 60.0°F15.6°C 54.1°F12.3°C 81% 3.5 mph NNW5.6 kmh NNW 5.8 mph9.3 kmh 29.80 in1009.1 mb - 0.00 in0.0 mm 0.00 in0.0 mm
02:40 PM 59.4°F15.2°C 54.6°F12.6°C 84% 4.6 mph NNW7.4 kmh NNW 5.8 mph9.3 kmh 29.80 in1009.1 mb - 0.00 in0.0 mm 0.00 in0.0 mm
02:50 PM 58.8°F14.9°C 54.3°F12.4°C 85% 3.5 mph W5.6 kmh W 3.5 mph5.6 kmh 29.80 in1009.1 mb - 0.00 in0.0 mm 0.00 in0.0 mm
03:00 PM 58.6°F14.8°C 54.1°F12.3°C 85% 1.2 mph NW1.9 kmh NW -- 29.82 in1009.8 mb - 0.00 in0.0 mm 0.00 in0.0 mm
03:10 PM 58.3°F14.6°C 54.2°F12.3°C 86% 4.6 mph NNW7.4 kmh NNW 5.8 mph9.3 kmh 29.82 in1009.8 mb - 0.05 in1.3 mm 0.05 in1.3 mm
03:20 PM 57.6°F14.2°C 54.0°F12.2°C 88% 4.6 mph N7.4 kmh N 5.8 mph9.3 kmh 29.82 in1009.8 mb - 0.05 in1.3 mm 0.05 in1.3 mm
03:30 PM 56.8°F13.8°C 53.9°F12.2°C 90% 5.8 mph NNW9.3 kmh NNW 5.8 mph9.3 kmh 29.82 in1009.8 mb - 0.05 in1.3 mm 0.05 in1.3 mm
03:40 PM 56.3°F13.5°C 53.7°F12.1°C 91% 8.1 mph NW13.0 kmh NW 11.5 mph18.5 kmh 29.82 in1009.8 mb - 0.05 in1.3 mm 0.05 in1.3 mm
03:50 PM 55.4°F13.0°C 53.4°F11.9°C 93% 3.5 mph N5.6 kmh N 5.8 mph9.3 kmh 29.82 in1009.8 mb - 0.05 in1.3 mm 0.05 in1.3 mm
04:00 PM 55.0°F12.8°C 53.6°F12.0°C 95% 3.5 mph N5.6 kmh N 4.6 mph7.4 kmh 29.82 in1009.8 mb - 0.05 in1.3 mm 0.05 in1.3 mm
04:10 PM 55.2°F12.9°C 54.3°F12.4°C 97% 4.6 mph N7.4 kmh N 5.8 mph9.3 kmh 29.82 in1009.8 mb - 0.00 in0.0 mm 0.05 in1.3 mm
04:20 PM 55.7°F13.2°C 55.2°F12.9°C 98% 2.3 mph NW3.7 kmh NW 5.8 mph9.3 kmh 29.82 in1009.8 mb - 0.00 in0.0 mm 0.05 in1.3 mm
04:30 PM 56.0°F13.3°C 55.4°F13.0°C 98% 3.5 mph NW5.6 kmh NW 4.6 mph7.4 kmh 29.82 in1009.8 mb - 0.00 in0.0 mm 0.05 in1.3 mm
04:40 PM 56.6°F13.7°C 56.0°F13.3°C 98% 3.5 mph NNW5.6 kmh NNW 5.8 mph9.3 kmh 29.82 in1009.8 mb - 0.00 in0.0 mm 0.05 in1.3 mm
04:50 PM 59.0°F15.0°C 58.4°F14.7°C 98% 3.5 mph WNW5.6 kmh WNW 5.8 mph9.3 kmh 29.82 in1009.8 mb - 0.00 in0.0 mm 0.05 in1.3 mm
05:00 PM 60.0°F15.6°C 58.9°F14.9°C 96% 1.2 mph W1.9 kmh W 2.3 mph3.7 kmh 29.82 in1009.8 mb - 0.00 in0.0 mm 0.05 in1.3 mm
05:10 PM 60.6°F15.9°C 58.3°F14.6°C 92% Calm Calm 2.3 mph3.7 kmh 29.82 in1009.8 mb - 0.00 in0.0 mm 0.05 in1.3 mm
05:20 PM 60.9°F16.1°C 57.0°F13.9°C 87% 4.6 mph NW7.4 kmh NW 3.5 mph5.6 kmh 29.82 in1009.8 mb - 0.00 in0.0 mm 0.05 in1.3 mm
05:30 PM 60.7°F15.9°C 54.8°F12.7°C 81% 2.3 mph N3.7 kmh N 4.6 mph7.4 kmh 29.82 in1009.8 mb - 0.00 in0.0 mm 0.05 in1.3 mm
05:40 PM 60.4°F15.8°C 53.9°F12.2°C 79% 5.8 mph W9.3 kmh W 9.2 mph14.8 kmh 29.82 in1009.8 mb - 0.00 in0.0 mm 0.05 in1.3 mm
05:50 PM 60.2°F15.7°C 54.0°F12.2°C 80% 5.8 mph NW9.3 kmh NW 5.8 mph9.3 kmh 29.82 in1009.8 mb - 0.00 in0.0 mm 0.05 in1.3 mm
06:00 PM 60.3°F15.7°C 53.7°F12.1°C 79% 2.3 mph WSW3.7 kmh WSW 2.3 mph3.7 kmh 29.82 in1009.8 mb - 0.00 in0.0 mm 0.05 in1.3 mm
06:10 PM 60.6°F15.9°C 54.4°F12.4°C 80% 2.3 mph N3.7 kmh N 5.8 mph9.3 kmh 29.82 in1009.8 mb - 0.00 in0.0 mm 0.05 in1.3 mm
06:20 PM 59.9°F15.5°C 53.4°F11.9°C 79% 8.1 mph N13.0 kmh N 10.4 mph16.7 kmh 29.86 in1011.2 mb - 0.00 in0.0 mm 0.05 in1.3 mm
06:30 PM 59.2°F15.1°C 53.4°F11.9°C 81% 6.9 mph N11.1 kmh N 10.4 mph16.7 kmh 29.82 in1009.8 mb - 0.00 in0.0 mm 0.05 in1.3 mm
06:40 PM 58.5°F14.7°C 53.0°F11.7°C 82% 6.9 mph N11.1 kmh N 9.2 mph14.8 kmh 29.82 in1009.8 mb - 0.00 in0.0 mm 0.05 in1.3 mm
06:50 PM 58.1°F14.5°C 52.6°F11.4°C 82% 5.8 mph N9.3 kmh N 5.8 mph9.3 kmh 29.86 in1011.2 mb - 0.00 in0.0 mm 0.05 in1.3 mm
07:00 PM 57.6°F14.2°C 52.4°F11.3°C 83% 5.8 mph N9.3 kmh N 8.1 mph13.0 kmh 29.88 in1011.9 mb - 0.00 in0.0 mm 0.05 in1.3 mm
07:10 PM 57.0°F13.9°C 51.9°F11.1°C 83% 6.9 mph N11.1 kmh N 8.1 mph13.0 kmh 29.88 in1011.9 mb - 0.00 in0.0 mm 0.05 in1.3 mm
07:20 PM 56.7°F13.7°C 51.6°F10.9°C 83% 5.8 mph N9.3 kmh N 9.2 mph14.8 kmh 29.88 in1011.9 mb - 0.00 in0.0 mm 0.05 in1.3 mm
07:30 PM 56.4°F13.6°C 51.6°F10.9°C 84% 4.6 mph NW7.4 kmh NW 5.8 mph9.3 kmh 29.88 in1011.9 mb - 0.00 in0.0 mm 0.05 in1.3 mm
07:40 PM 56.0°F13.3°C 51.2°F10.7°C 84% 2.3 mph NW3.7 kmh NW 3.5 mph5.6 kmh 29.88 in1011.9 mb - 0.00 in0.0 mm 0.05 in1.3 mm
07:50 PM 55.8°F13.2°C 51.3°F10.7°C 85% 2.3 mph N3.7 kmh N 4.6 mph7.4 kmh 29.88 in1011.9 mb - 0.00 in0.0 mm 0.05 in1.3 mm
08:00 PM 55.8°F13.2°C 51.3°F10.7°C 85% 3.5 mph NNW5.6 kmh NNW 4.6 mph7.4 kmh 29.88 in1011.9 mb - 0.00 in0.0 mm 0.05 in1.3 mm
08:10 PM 55.8°F13.2°C 51.3°F10.7°C 85% Calm Calm 2.3 mph3.7 kmh 29.88 in1011.9 mb - 0.00 in0.0 mm 0.05 in1.3 mm
08:20 PM 55.1°F12.8°C 51.3°F10.7°C 87% Calm Calm -- 29.88 in1011.9 mb - 0.00 in0.0 mm 0.05 in1.3 mm
08:30 PM 53.8°F12.1°C 50.9°F10.5°C 90% Calm Calm -- 29.91 in1012.9 mb - 0.00 in0.0 mm 0.05 in1.3 mm
08:40 PM 53.2°F11.8°C 51.0°F10.6°C 92% Calm Calm -- 29.91 in1012.9 mb - 0.00 in0.0 mm 0.05 in1.3 mm
08:50 PM 53.1°F11.7°C 50.8°F10.4°C 92% Calm Calm -- 29.91 in1012.9 mb - 0.00 in0.0 mm 0.05 in1.3 mm
09:00 PM 52.7°F11.5°C 50.7°F10.4°C 93% Calm Calm -- 29.91 in1012.9 mb - 0.00 in0.0 mm 0.05 in1.3 mm
09:10 PM 52.5°F11.4°C 50.6°F10.3°C 93% Calm Calm -- 29.91 in1012.9 mb - 0.00 in0.0 mm 0.05 in1.3 mm
09:20 PM 52.1°F11.2°C 50.4°F10.2°C 94% Calm Calm -- 29.88 in1011.9 mb - 0.00 in0.0 mm 0.05 in1.3 mm
09:30 PM 51.8°F11.0°C 50.1°F10.1°C 94% Calm Calm -- 29.88 in1011.9 mb - 0.00 in0.0 mm 0.05 in1.3 mm
09:40 PM 51.4°F10.8°C 50.1°F10.1°C 95% Calm Calm -- 29.88 in1011.9 mb - 0.00 in0.0 mm 0.05 in1.3 mm
09:50 PM 51.3°F10.7°C 49.9°F9.9°C 95% Calm Calm -- 29.88 in1011.9 mb - 0.00 in0.0 mm 0.05 in1.3 mm
10:00 PM 50.9°F10.5°C 49.8°F9.9°C 96% Calm Calm -- 29.88 in1011.9 mb - 0.00 in0.0 mm 0.05 in1.3 mm
10:10 PM 50.7°F10.4°C 49.6°F9.8°C 96% Calm Calm -- 29.88 in1011.9 mb - 0.00 in0.0 mm 0.05 in1.3 mm
10:20 PM 50.4°F10.2°C 49.3°F9.6°C 96% Calm Calm -- 29.88 in1011.9 mb - 0.00 in0.0 mm 0.05 in1.3 mm
10:30 PM 50.0°F10.0°C 48.9°F9.4°C 96% Calm Calm 2.3 mph3.7 kmh 29.88 in1011.9 mb - 0.00 in0.0 mm 0.05 in1.3 mm
10:40 PM 49.7°F9.8°C 48.9°F9.4°C 97% Calm Calm -- 29.88 in1011.9 mb - 0.00 in0.0 mm 0.05 in1.3 mm
10:50 PM 49.5°F9.7°C 48.6°F9.2°C 97% Calm Calm -- 29.88 in1011.9 mb - 0.00 in0.0 mm 0.05 in1.3 mm
11:00 PM 49.3°F9.6°C 48.5°F9.2°C 97% Calm Calm -- 29.88 in1011.9 mb - 0.00 in0.0 mm 0.30 in7.6 mm
11:10 PM 49.1°F9.5°C 48.6°F9.2°C 98% Calm Calm -- 29.88 in1011.9 mb - 0.00 in0.0 mm 0.30 in7.6 mm
11:20 PM 49.3°F9.6°C 48.7°F9.3°C 98% Calm Calm -- 29.86 in1011.2 mb - 0.00 in0.0 mm 0.30 in7.6 mm
11:30 PM 49.1°F9.5°C 48.6°F9.2°C 98% Calm Calm -- 29.86 in1011.2 mb - 0.00 in0.0 mm 0.30 in7.6 mm
11:40 PM 48.9°F9.4°C 48.4°F9.1°C 98% Calm Calm -- 29.86 in1011.2 mb - 0.00 in0.0 mm 0.30 in7.6 mm
11:50 PM 48.7°F9.3°C 48.2°F9.0°C 98% Calm Calm -- 29.86 in1011.2 mb - 0.00 in0.0 mm 0.30 in7.6 mm